sensor_id;sensor_type;location;lat;lon;timestamp;temperature;humidity
7030;DHT22;3556;53.500;10.176;2022-08-27T00:01:15;19.50;99.90
7030;DHT22;3556;53.500;10.176;2022-08-27T00:03:42;19.50;99.90
7030;DHT22;3556;53.500;10.176;2022-08-27T00:06:13;19.50;99.90
7030;DHT22;3556;53.500;10.176;2022-08-27T00:08:44;19.50;99.90
7030;DHT22;3556;53.500;10.176;2022-08-27T00:11:10;19.50;99.90
7030;DHT22;3556;53.500;10.176;2022-08-27T00:13:37;19.50;99.90
7030;DHT22;3556;53.500;10.176;2022-08-27T00:16:05;19.50;99.90
7030;DHT22;3556;53.500;10.176;2022-08-27T00:18:32;19.50;99.90
7030;DHT22;3556;53.500;10.176;2022-08-27T00:20:59;19.50;99.90
7030;DHT22;3556;53.500;10.176;2022-08-27T00:23:25;19.50;99.90
7030;DHT22;3556;53.500;10.176;2022-08-27T00:25:51;19.50;99.90
7030;DHT22;3556;53.500;10.176;2022-08-27T00:28:17;19.50;99.90
7030;DHT22;3556;53.500;10.176;2022-08-27T00:30:42;19.50;99.90
7030;DHT22;3556;53.500;10.176;2022-08-27T00:33:08;19.40;99.90
7030;DHT22;3556;53.500;10.176;2022-08-27T00:35:34;19.40;99.90
7030;DHT22;3556;53.500;10.176;2022-08-27T00:38:01;19.50;99.90
7030;DHT22;3556;53.500;10.176;2022-08-27T00:40:27;19.50;99.90
7030;DHT22;3556;53.500;10.176;2022-08-27T00:42:53;19.40;99.90
7030;DHT22;3556;53.500;10.176;2022-08-27T00:45:21;19.40;99.90
7030;DHT22;3556;53.500;10.176;2022-08-27T00:47:51;19.40;99.90
7030;DHT22;3556;53.500;10.176;2022-08-27T00:50:37;19.30;99.90
7030;DHT22;3556;53.500;10.176;2022-08-27T00:53:11;19.40;99.90
7030;DHT22;3556;53.500;10.176;2022-08-27T00:55:54;19.30;99.90
7030;DHT22;3556;53.500;10.176;2022-08-27T00:58:41;19.30;99.90
7030;DHT22;3556;53.500;10.176;2022-08-27T01:01:11;19.30;99.90
7030;DHT22;3556;53.500;10.176;2022-08-27T01:03:38;19.30;99.90
7030;DHT22;3556;53.500;10.176;2022-08-27T01:06:08;19.20;99.90
7030;DHT22;3556;53.500;10.176;2022-08-27T01:08:38;19.20;99.90
7030;DHT22;3556;53.500;10.176;2022-08-27T01:11:05;19.20;99.90
7030;DHT22;3556;53.500;10.176;2022-08-27T01:13:32;19.20;99.90
7030;DHT22;3556;53.500;10.176;2022-08-27T01:15:59;19.20;99.90
7030;DHT22;3556;53.500;10.176;2022-08-27T01:18:26;19.20;99.90
7030;DHT22;3556;53.500;10.176;2022-08-27T01:21:09;19.20;99.90
7030;DHT22;3556;53.500;10.176;2022-08-27T01:24:02;19.20;99.90
7030;DHT22;3556;53.500;10.176;2022-08-27T01:26:30;19.20;99.90
7030;DHT22;3556;53.500;10.176;2022-08-27T01:28:57;19.20;99.90
7030;DHT22;3556;53.500;10.176;2022-08-27T01:31:22;19.20;99.90
7030;DHT22;3556;53.500;10.176;2022-08-27T01:34:01;19.10;99.90
7030;DHT22;3556;53.500;10.176;2022-08-27T01:36:28;19.10;99.90
7030;DHT22;3556;53.500;10.176;2022-08-27T01:38:54;19.00;99.90
7030;DHT22;3556;53.500;10.176;2022-08-27T01:41:21;19.00;99.90
7030;DHT22;3556;53.500;10.176;2022-08-27T01:43:47;19.00;99.90
7030;DHT22;3556;53.500;10.176;2022-08-27T01:46:13;19.00;99.90
7030;DHT22;3556;53.500;10.176;2022-08-27T01:48:39;19.00;99.90
7030;DHT22;3556;53.500;10.176;2022-08-27T01:51:05;19.00;99.90
7030;DHT22;3556;53.500;10.176;2022-08-27T01:53:31;19.00;99.90
7030;DHT22;3556;53.500;10.176;2022-08-27T01:55:57;19.00;99.90
7030;DHT22;3556;53.500;10.176;2022-08-27T01:58:28;19.00;99.90
7030;DHT22;3556;53.500;10.176;2022-08-27T02:00:58;18.90;99.90
7030;DHT22;3556;53.500;10.176;2022-08-27T02:03:25;19.00;99.90
7030;DHT22;3556;53.500;10.176;2022-08-27T02:05:52;18.90;99.90
7030;DHT22;3556;53.500;10.176;2022-08-27T02:08:18;19.00;99.90
7030;DHT22;3556;53.500;10.176;2022-08-27T02:10:46;18.90;99.90
7030;DHT22;3556;53.500;10.176;2022-08-27T02:13:12;18.90;99.90
7030;DHT22;3556;53.500;10.176;2022-08-27T02:15:39;18.90;99.90
7030;DHT22;3556;53.500;10.176;2022-08-27T02:18:07;19.00;99.90
7030;DHT22;3556;53.500;10.176;2022-08-27T02:20:33;18.90;99.90
7030;DHT22;3556;53.500;10.176;2022-08-27T02:23:00;18.90;99.90
7030;DHT22;3556;53.500;10.176;2022-08-27T02:25:27;18.90;99.90
7030;DHT22;3556;53.500;10.176;2022-08-27T02:27:53;18.90;99.90
7030;DHT22;3556;53.500;10.176;2022-08-27T02:30:22;18.90;99.90
7030;DHT22;3556;53.500;10.176;2022-08-27T02:32:48;18.90;99.90
7030;DHT22;3556;53.500;10.176;2022-08-27T02:35:16;18.90;99.90
7030;DHT22;3556;53.500;10.176;2022-08-27T02:37:42;18.90;99.90
7030;DHT22;3556;53.500;10.176;2022-08-27T02:40:10;18.90;99.90
7030;DHT22;3556;53.500;10.176;2022-08-27T02:42:37;18.90;99.90
7030;DHT22;3556;53.500;10.176;2022-08-27T02:45:03;19.00;99.90
7030;DHT22;3556;53.500;10.176;2022-08-27T02:47:30;19.00;99.90
7030;DHT22;3556;53.500;10.176;2022-08-27T02:49:56;18.90;99.90
7030;DHT22;3556;53.500;10.176;2022-08-27T02:52:22;18.90;99.90
7030;DHT22;3556;53.500;10.176;2022-08-27T02:54:47;18.90;99.90
7030;DHT22;3556;53.500;10.176;2022-08-27T02:57:13;18.90;99.90
7030;DHT22;3556;53.500;10.176;2022-08-27T02:59:39;18.90;99.90
7030;DHT22;3556;53.500;10.176;2022-08-27T03:02:04;18.90;99.90
7030;DHT22;3556;53.500;10.176;2022-08-27T03:04:30;18.90;99.90
7030;DHT22;3556;53.500;10.176;2022-08-27T03:06:56;18.90;99.90
7030;DHT22;3556;53.500;10.176;2022-08-27T03:09:22;18.90;99.90
7030;DHT22;3556;53.500;10.176;2022-08-27T03:11:47;18.90;99.90
7030;DHT22;3556;53.500;10.176;2022-08-27T03:14:13;18.90;99.90
7030;DHT22;3556;53.500;10.176;2022-08-27T03:16:39;18.90;99.90
7030;DHT22;3556;53.500;10.176;2022-08-27T03:19:06;18.80;99.90
7030;DHT22;3556;53.500;10.176;2022-08-27T03:21:32;18.90;99.90
7030;DHT22;3556;53.500;10.176;2022-08-27T03:23:59;18.90;99.90
7030;DHT22;3556;53.500;10.176;2022-08-27T03:26:27;18.80;99.90
7030;DHT22;3556;53.500;10.176;2022-08-27T03:28:53;18.80;99.90
7030;DHT22;3556;53.500;10.176;2022-08-27T03:31:21;18.80;99.90
7030;DHT22;3556;53.500;10.176;2022-08-27T03:33:59;18.80;99.90
7030;DHT22;3556;53.500;10.176;2022-08-27T03:36:27;18.80;99.90
7030;DHT22;3556;53.500;10.176;2022-08-27T03:38:54;18.80;99.90
7030;DHT22;3556;53.500;10.176;2022-08-27T03:41:21;18.80;99.90
7030;DHT22;3556;53.500;10.176;2022-08-27T03:43:47;18.80;99.90
7030;DHT22;3556;53.500;10.176;2022-08-27T03:46:14;18.80;99.90
7030;DHT22;3556;53.500;10.176;2022-08-27T03:48:39;18.80;99.90
7030;DHT22;3556;53.500;10.176;2022-08-27T03:51:07;18.80;99.90
7030;DHT22;3556;53.500;10.176;2022-08-27T03:53:36;18.80;99.90
7030;DHT22;3556;53.500;10.176;2022-08-27T03:56:03;18.70;99.90
7030;DHT22;3556;53.500;10.176;2022-08-27T03:58:29;18.70;99.90
7030;DHT22;3556;53.500;10.176;2022-08-27T04:00:55;18.70;99.90
7030;DHT22;3556;53.500;10.176;2022-08-27T04:03:21;18.70;99.90
7030;DHT22;3556;53.500;10.176;2022-08-27T04:05:52;18.70;99.90
7030;DHT22;3556;53.500;10.176;2022-08-27T04:08:17;18.70;99.90
7030;DHT22;3556;53.500;10.176;2022-08-27T04:10:43;18.70;99.90
7030;DHT22;3556;53.500;10.176;2022-08-27T04:13:08;18.70;99.90
7030;DHT22;3556;53.500;10.176;2022-08-27T04:15:34;18.70;99.90
7030;DHT22;3556;53.500;10.176;2022-08-27T04:18:00;18.70;99.90
7030;DHT22;3556;53.500;10.176;2022-08-27T04:20:26;18.70;99.90
7030;DHT22;3556;53.500;10.176;2022-08-27T04:22:52;18.70;99.90
7030;DHT22;3556;53.500;10.176;2022-08-27T04:25:18;18.70;99.90
7030;DHT22;3556;53.500;10.176;2022-08-27T04:27:45;18.70;99.90
7030;DHT22;3556;53.500;10.176;2022-08-27T04:30:11;18.70;99.90
7030;DHT22;3556;53.500;10.176;2022-08-27T04:32:39;18.70;99.90
7030;DHT22;3556;53.500;10.176;2022-08-27T04:35:05;18.70;99.90
7030;DHT22;3556;53.500;10.176;2022-08-27T04:37:31;18.70;99.90
7030;DHT22;3556;53.500;10.176;2022-08-27T04:39:58;18.70;99.90
7030;DHT22;3556;53.500;10.176;2022-08-27T04:42:23;18.70;99.90
7030;DHT22;3556;53.500;10.176;2022-08-27T04:44:49;18.70;99.90
7030;DHT22;3556;53.500;10.176;2022-08-27T04:47:15;18.70;99.90
7030;DHT22;3556;53.500;10.176;2022-08-27T04:49:42;18.60;99.90
7030;DHT22;3556;53.500;10.176;2022-08-27T04:52:08;18.70;99.90
7030;DHT22;3556;53.500;10.176;2022-08-27T04:54:34;18.60;99.90
7030;DHT22;3556;53.500;10.176;2022-08-27T04:57:01;18.60;99.90
7030;DHT22;3556;53.500;10.176;2022-08-27T04:59:27;18.50;99.90
7030;DHT22;3556;53.500;10.176;2022-08-27T05:01:53;18.50;99.90
7030;DHT22;3556;53.500;10.176;2022-08-27T05:04:18;18.50;99.90
7030;DHT22;3556;53.500;10.176;2022-08-27T05:06:44;18.50;99.90
7030;DHT22;3556;53.500;10.176;2022-08-27T05:09:17;18.50;99.90
7030;DHT22;3556;53.500;10.176;2022-08-27T05:11:43;18.50;99.90
7030;DHT22;3556;53.500;10.176;2022-08-27T05:14:12;18.50;99.90
7030;DHT22;3556;53.500;10.176;2022-08-27T05:16:38;18.50;99.90
7030;DHT22;3556;53.500;10.176;2022-08-27T05:19:06;18.50;99.90
7030;DHT22;3556;53.500;10.176;2022-08-27T05:21:38;18.50;99.90
7030;DHT22;3556;53.500;10.176;2022-08-27T05:24:06;18.60;99.90
7030;DHT22;3556;53.500;10.176;2022-08-27T05:26:34;18.60;99.90
7030;DHT22;3556;53.500;10.176;2022-08-27T05:29:00;18.60;99.90
7030;DHT22;3556;53.500;10.176;2022-08-27T05:31:27;18.60;99.90
7030;DHT22;3556;53.500;10.176;2022-08-27T05:33:54;18.60;99.90
7030;DHT22;3556;53.500;10.176;2022-08-27T05:36:27;18.60;99.90
7030;DHT22;3556;53.500;10.176;2022-08-27T05:38:55;18.60;99.90
7030;DHT22;3556;53.500;10.176;2022-08-27T05:41:23;18.60;99.90
7030;DHT22;3556;53.500;10.176;2022-08-27T05:43:52;18.60;99.90
7030;DHT22;3556;53.500;10.176;2022-08-27T05:46:20;18.60;99.90
7030;DHT22;3556;53.500;10.176;2022-08-27T05:48:47;18.60;99.90
7030;DHT22;3556;53.500;10.176;2022-08-27T05:51:31;18.60;99.90
7030;DHT22;3556;53.500;10.176;2022-08-27T05:53:59;18.50;99.90
7030;DHT22;3556;53.500;10.176;2022-08-27T05:56:27;18.50;99.90
7030;DHT22;3556;53.500;10.176;2022-08-27T05:58:54;18.50;99.90
7030;DHT22;3556;53.500;10.176;2022-08-27T06:01:42;18.50;99.90
7030;DHT22;3556;53.500;10.176;2022-08-27T06:04:08;18.50;99.90
7030;DHT22;3556;53.500;10.176;2022-08-27T06:06:36;18.50;99.90
7030;DHT22;3556;53.500;10.176;2022-08-27T06:09:02;18.50;99.90
7030;DHT22;3556;53.500;10.176;2022-08-27T06:11:28;18.40;99.90
7030;DHT22;3556;53.500;10.176;2022-08-27T06:13:54;18.50;99.90
7030;DHT22;3556;53.500;10.176;2022-08-27T06:16:20;18.50;99.90
7030;DHT22;3556;53.500;10.176;2022-08-27T06:18:47;18.50;99.90
7030;DHT22;3556;53.500;10.176;2022-08-27T06:21:14;18.50;99.90
7030;DHT22;3556;53.500;10.176;2022-08-27T06:23:40;18.40;99.90
7030;DHT22;3556;53.500;10.176;2022-08-27T06:26:08;18.40;99.90
7030;DHT22;3556;53.500;10.176;2022-08-27T06:28:35;18.40;99.90
7030;DHT22;3556;53.500;10.176;2022-08-27T06:31:10;18.40;99.90
7030;DHT22;3556;53.500;10.176;2022-08-27T06:33:37;18.40;99.90
7030;DHT22;3556;53.500;10.176;2022-08-27T06:36:06;18.50;99.90
7030;DHT22;3556;53.500;10.176;2022-08-27T06:38:33;18.50;99.90
7030;DHT22;3556;53.500;10.176;2022-08-27T06:41:01;18.50;99.90
7030;DHT22;3556;53.500;10.176;2022-08-27T06:43:27;18.50;99.90
7030;DHT22;3556;53.500;10.176;2022-08-27T06:45:53;18.50;99.90
7030;DHT22;3556;53.500;10.176;2022-08-27T06:48:19;18.50;99.90
7030;DHT22;3556;53.500;10.176;2022-08-27T06:50:45;18.50;99.90
7030;DHT22;3556;53.500;10.176;2022-08-27T06:53:11;18.60;99.90
7030;DHT22;3556;53.500;10.176;2022-08-27T06:55:45;18.60;99.90
7030;DHT22;3556;53.500;10.176;2022-08-27T06:58:15;18.60;99.90
7030;DHT22;3556;53.500;10.176;2022-08-27T07:00:41;18.60;99.90
7030;DHT22;3556;53.500;10.176;2022-08-27T07:03:09;18.60;99.90
7030;DHT22;3556;53.500;10.176;2022-08-27T07:05:36;18.50;99.90
7030;DHT22;3556;53.500;10.176;2022-08-27T07:08:03;18.50;99.90
7030;DHT22;3556;53.500;10.176;2022-08-27T07:10:29;18.50;99.90
7030;DHT22;3556;53.500;10.176;2022-08-27T07:12:54;18.50;99.90
7030;DHT22;3556;53.500;10.176;2022-08-27T07:15:20;18.50;99.90
7030;DHT22;3556;53.500;10.176;2022-08-27T07:17:46;18.50;99.90
7030;DHT22;3556;53.500;10.176;2022-08-27T07:20:14;18.50;99.90
7030;DHT22;3556;53.500;10.176;2022-08-27T07:22:41;18.50;99.90
7030;DHT22;3556;53.500;10.176;2022-08-27T07:25:09;18.50;99.90
7030;DHT22;3556;53.500;10.176;2022-08-27T07:27:37;18.40;99.90
7030;DHT22;3556;53.500;10.176;2022-08-27T07:30:05;18.40;99.90
7030;DHT22;3556;53.500;10.176;2022-08-27T07:32:31;18.40;99.90
7030;DHT22;3556;53.500;10.176;2022-08-27T07:34:57;18.40;99.90
7030;DHT22;3556;53.500;10.176;2022-08-27T07:37:22;18.40;99.90
7030;DHT22;3556;53.500;10.176;2022-08-27T07:39:48;18.40;99.90
7030;DHT22;3556;53.500;10.176;2022-08-27T07:42:13;18.40;99.90
7030;DHT22;3556;53.500;10.176;2022-08-27T07:44:58;18.50;99.90
7030;DHT22;3556;53.500;10.176;2022-08-27T07:47:23;18.40;99.90
7030;DHT22;3556;53.500;10.176;2022-08-27T07:49:49;18.50;99.90
7030;DHT22;3556;53.500;10.176;2022-08-27T07:52:15;18.50;99.90
7030;DHT22;3556;53.500;10.176;2022-08-27T07:54:41;18.50;99.90
7030;DHT22;3556;53.500;10.176;2022-08-27T07:57:09;18.50;99.90
7030;DHT22;3556;53.500;10.176;2022-08-27T07:59:34;18.60;99.90
7030;DHT22;3556;53.500;10.176;2022-08-27T08:02:00;18.50;99.90
7030;DHT22;3556;53.500;10.176;2022-08-27T08:04:26;18.60;99.90
7030;DHT22;3556;53.500;10.176;2022-08-27T08:06:52;18.60;99.90
7030;DHT22;3556;53.500;10.176;2022-08-27T08:09:20;18.50;99.90
7030;DHT22;3556;53.500;10.176;2022-08-27T08:11:46;18.50;99.90
7030;DHT22;3556;53.500;10.176;2022-08-27T08:14:12;18.50;99.90
7030;DHT22;3556;53.500;10.176;2022-08-27T08:16:38;18.50;99.90
7030;DHT22;3556;53.500;10.176;2022-08-27T08:19:04;18.40;99.90
7030;DHT22;3556;53.500;10.176;2022-08-27T08:21:30;18.50;99.90
7030;DHT22;3556;53.500;10.176;2022-08-27T08:23:56;18.40;99.90
7030;DHT22;3556;53.500;10.176;2022-08-27T08:26:22;18.40;99.90
7030;DHT22;3556;53.500;10.176;2022-08-27T08:28:48;18.40;99.90
7030;DHT22;3556;53.500;10.176;2022-08-27T08:31:13;18.40;99.90
7030;DHT22;3556;53.500;10.176;2022-08-27T08:33:39;18.40;99.90
7030;DHT22;3556;53.500;10.176;2022-08-27T08:36:08;18.50;99.90
7030;DHT22;3556;53.500;10.176;2022-08-27T08:38:35;18.50;99.90
7030;DHT22;3556;53.500;10.176;2022-08-27T08:41:02;18.50;99.90
7030;DHT22;3556;53.500;10.176;2022-08-27T08:43:36;18.50;99.90
7030;DHT22;3556;53.500;10.176;2022-08-27T08:49:06;18.50;99.90
7030;DHT22;3556;53.500;10.176;2022-08-27T08:51:38;18.50;99.90
7030;DHT22;3556;53.500;10.176;2022-08-27T08:54:18;18.50;99.90
7030;DHT22;3556;53.500;10.176;2022-08-27T08:56:51;18.50;99.90
7030;DHT22;3556;53.500;10.176;2022-08-27T08:59:26;18.50;99.90
7030;DHT22;3556;53.500;10.176;2022-08-27T09:01:52;18.50;99.90
7030;DHT22;3556;53.500;10.176;2022-08-27T09:04:19;18.50;99.90
7030;DHT22;3556;53.500;10.176;2022-08-27T09:09:24;18.60;99.90
7030;DHT22;3556;53.500;10.176;2022-08-27T09:11:59;18.50;99.90
7030;DHT22;3556;53.500;10.176;2022-08-27T09:14:36;18.50;99.90
7030;DHT22;3556;53.500;10.176;2022-08-27T09:17:04;18.50;99.90
7030;DHT22;3556;53.500;10.176;2022-08-27T09:19:30;18.50;99.90
7030;DHT22;3556;53.500;10.176;2022-08-27T09:27:39;18.60;99.90
7030;DHT22;3556;53.500;10.176;2022-08-27T09:30:24;18.60;99.90
7030;DHT22;3556;53.500;10.176;2022-08-27T09:32:59;18.60;99.90
7030;DHT22;3556;53.500;10.176;2022-08-27T09:35:26;18.70;99.90
7030;DHT22;3556;53.500;10.176;2022-08-27T09:37:55;18.70;99.90
7030;DHT22;3556;53.500;10.176;2022-08-27T09:40:35;18.70;99.90
7030;DHT22;3556;53.500;10.176;2022-08-27T09:43:21;18.70;99.90
7030;DHT22;3556;53.500;10.176;2022-08-27T09:45:59;18.80;99.90
7030;DHT22;3556;53.500;10.176;2022-08-27T09:48:33;18.80;99.90
7030;DHT22;3556;53.500;10.176;2022-08-27T09:51:04;18.90;99.90
7030;DHT22;3556;53.500;10.176;2022-08-27T09:56:05;18.90;99.90
7030;DHT22;3556;53.500;10.176;2022-08-27T09:58:44;18.90;99.90
7030;DHT22;3556;53.500;10.176;2022-08-27T10:01:22;18.80;99.90
7030;DHT22;3556;53.500;10.176;2022-08-27T10:03:48;18.90;99.90
7030;DHT22;3556;53.500;10.176;2022-08-27T10:06:25;18.90;99.90
7030;DHT22;3556;53.500;10.176;2022-08-27T10:08:53;18.90;99.90
7030;DHT22;3556;53.500;10.176;2022-08-27T10:11:27;18.80;99.90
7030;DHT22;3556;53.500;10.176;2022-08-27T10:17:00;18.80;99.90
7030;DHT22;3556;53.500;10.176;2022-08-27T10:33:56;18.60;99.90
7030;DHT22;3556;53.500;10.176;2022-08-27T10:42:15;18.60;99.90
7030;DHT22;3556;53.500;10.176;2022-08-27T10:44:45;18.60;99.90
7030;DHT22;3556;53.500;10.176;2022-08-27T10:47:41;18.60;99.90
7030;DHT22;3556;53.500;10.176;2022-08-27T10:52:52;18.60;99.90
7030;DHT22;3556;53.500;10.176;2022-08-27T10:55:22;18.70;99.90
7030;DHT22;3556;53.500;10.176;2022-08-27T11:03:40;18.80;99.90
7030;DHT22;3556;53.500;10.176;2022-08-27T11:06:32;18.90;99.90
7030;DHT22;3556;53.500;10.176;2022-08-27T11:09:12;19.00;99.90
7030;DHT22;3556;53.500;10.176;2022-08-27T11:11:43;19.00;99.90
7030;DHT22;3556;53.500;10.176;2022-08-27T11:14:28;19.10;99.90
7030;DHT22;3556;53.500;10.176;2022-08-27T11:17:01;19.10;99.90
7030;DHT22;3556;53.500;10.176;2022-08-27T11:19:42;19.20;99.90
7030;DHT22;3556;53.500;10.176;2022-08-27T11:22:18;19.20;99.90
7030;DHT22;3556;53.500;10.176;2022-08-27T11:24:53;19.40;99.90
7030;DHT22;3556;53.500;10.176;2022-08-27T11:27:24;19.40;99.90
7030;DHT22;3556;53.500;10.176;2022-08-27T11:30:04;19.50;99.90
7030;DHT22;3556;53.500;10.176;2022-08-27T11:35:08;19.60;99.90
7030;DHT22;3556;53.500;10.176;2022-08-27T11:43:16;19.60;99.90
7030;DHT22;3556;53.500;10.176;2022-08-27T11:45:54;19.60;99.90
7030;DHT22;3556;53.500;10.176;2022-08-27T11:48:24;19.60;99.90
7030;DHT22;3556;53.500;10.176;2022-08-27T11:51:11;19.60;99.90
7030;DHT22;3556;53.500;10.176;2022-08-27T11:53:41;19.60;99.90
7030;DHT22;3556;53.500;10.176;2022-08-27T11:56:35;19.60;99.90
7030;DHT22;3556;53.500;10.176;2022-08-27T11:59:22;19.50;99.90
7030;DHT22;3556;53.500;10.176;2022-08-27T12:01:49;19.50;99.90
7030;DHT22;3556;53.500;10.176;2022-08-27T12:04:31;19.50;99.90
7030;DHT22;3556;53.500;10.176;2022-08-27T12:15:17;19.70;99.90
7030;DHT22;3556;53.500;10.176;2022-08-27T12:34:54;20.00;99.90
7030;DHT22;3556;53.500;10.176;2022-08-27T12:37:27;20.10;99.90
7030;DHT22;3556;53.500;10.176;2022-08-27T12:39:56;20.10;99.90
7030;DHT22;3556;53.500;10.176;2022-08-27T12:42:22;20.10;99.90
7030;DHT22;3556;53.500;10.176;2022-08-27T12:44:53;20.10;99.90
7030;DHT22;3556;53.500;10.176;2022-08-27T12:47:20;20.20;99.90
7030;DHT22;3556;53.500;10.176;2022-08-27T12:49:57;20.20;99.90
7030;DHT22;3556;53.500;10.176;2022-08-27T12:57:48;20.40;99.90
7030;DHT22;3556;53.500;10.176;2022-08-27T13:00:19;20.40;99.90
7030;DHT22;3556;53.500;10.176;2022-08-27T13:05:44;20.50;99.90
7030;DHT22;3556;53.500;10.176;2022-08-27T13:08:25;20.60;99.90
7030;DHT22;3556;53.500;10.176;2022-08-27T13:10:50;20.60;99.90
7030;DHT22;3556;53.500;10.176;2022-08-27T13:13:19;20.60;99.90
7030;DHT22;3556;53.500;10.176;2022-08-27T13:15:51;20.70;99.90
7030;DHT22;3556;53.500;10.176;2022-08-27T13:18:19;20.80;99.90
7030;DHT22;3556;53.500;10.176;2022-08-27T13:20:45;20.80;99.90
7030;DHT22;3556;53.500;10.176;2022-08-27T13:23:18;20.90;99.90
7030;DHT22;3556;53.500;10.176;2022-08-27T13:28:28;21.00;99.90
7030;DHT22;3556;53.500;10.176;2022-08-27T13:30:55;21.10;99.90
7030;DHT22;3556;53.500;10.176;2022-08-27T13:33:32;21.20;99.90
7030;DHT22;3556;53.500;10.176;2022-08-27T13:35:59;21.30;99.90
7030;DHT22;3556;53.500;10.176;2022-08-27T13:38:28;21.50;99.90
7030;DHT22;3556;53.500;10.176;2022-08-27T13:40:59;21.90;99.90
7030;DHT22;3556;53.500;10.176;2022-08-27T13:43:31;22.30;99.90
7030;DHT22;3556;53.500;10.176;2022-08-27T13:45:58;22.70;99.90
7030;DHT22;3556;53.500;10.176;2022-08-27T13:48:25;23.00;99.90
7030;DHT22;3556;53.500;10.176;2022-08-27T13:50:53;23.40;99.90
7030;DHT22;3556;53.500;10.176;2022-08-27T13:53:23;23.90;99.90
7030;DHT22;3556;53.500;10.176;2022-08-27T13:56:07;24.60;99.90
7030;DHT22;3556;53.500;10.176;2022-08-27T13:58:35;25.30;99.90
7030;DHT22;3556;53.500;10.176;2022-08-27T14:01:26;25.80;99.90
7030;DHT22;3556;53.500;10.176;2022-08-27T14:04:05;26.30;99.90
7030;DHT22;3556;53.500;10.176;2022-08-27T14:09:41;27.00;99.90
7030;DHT22;3556;53.500;10.176;2022-08-27T14:12:05;27.60;99.90
7030;DHT22;3556;53.500;10.176;2022-08-27T14:14:40;28.10;99.90
7030;DHT22;3556;53.500;10.176;2022-08-27T14:17:25;28.60;98.30
7030;DHT22;3556;53.500;10.176;2022-08-27T14:19:52;29.10;97.20
7030;DHT22;3556;53.500;10.176;2022-08-27T14:22:18;29.60;94.20
7030;DHT22;3556;53.500;10.176;2022-08-27T14:24:43;29.80;92.50
7030;DHT22;3556;53.500;10.176;2022-08-27T14:27:12;30.00;92.10
7030;DHT22;3556;53.500;10.176;2022-08-27T14:29:39;30.20;92.50
7030;DHT22;3556;53.500;10.176;2022-08-27T14:32:05;30.50;91.20
7030;DHT22;3556;53.500;10.176;2022-08-27T14:34:34;30.70;91.60
7030;DHT22;3556;53.500;10.176;2022-08-27T14:37:00;30.70;89.10
7030;DHT22;3556;53.500;10.176;2022-08-27T14:39:26;30.70;87.60
7030;DHT22;3556;53.500;10.176;2022-08-27T14:41:52;30.70;88.90
7030;DHT22;3556;53.500;10.176;2022-08-27T14:44:17;30.90;90.40
7030;DHT22;3556;53.500;10.176;2022-08-27T14:46:43;30.90;89.40
7030;DHT22;3556;53.500;10.176;2022-08-27T14:49:12;30.50;88.70
7030;DHT22;3556;53.500;10.176;2022-08-27T14:51:40;30.10;89.00
7030;DHT22;3556;53.500;10.176;2022-08-27T14:54:07;29.80;90.30
7030;DHT22;3556;53.500;10.176;2022-08-27T14:56:33;29.70;86.80
7030;DHT22;3556;53.500;10.176;2022-08-27T14:58:59;29.60;89.40
7030;DHT22;3556;53.500;10.176;2022-08-27T15:01:25;29.50;90.50
7030;DHT22;3556;53.500;10.176;2022-08-27T15:03:52;29.40;89.10
7030;DHT22;3556;53.500;10.176;2022-08-27T15:06:19;29.50;87.10
7030;DHT22;3556;53.500;10.176;2022-08-27T15:08:46;29.50;87.60
7030;DHT22;3556;53.500;10.176;2022-08-27T15:11:20;29.50;86.70
7030;DHT22;3556;53.500;10.176;2022-08-27T15:13:48;29.30;90.40
7030;DHT22;3556;53.500;10.176;2022-08-27T15:16:25;29.00;88.00
7030;DHT22;3556;53.500;10.176;2022-08-27T15:18:51;28.70;85.40
7030;DHT22;3556;53.500;10.176;2022-08-27T15:21:16;28.40;90.90
7030;DHT22;3556;53.500;10.176;2022-08-27T15:23:45;28.00;90.00
7030;DHT22;3556;53.500;10.176;2022-08-27T15:26:12;27.90;91.10
7030;DHT22;3556;53.500;10.176;2022-08-27T15:28:38;27.90;91.80
7030;DHT22;3556;53.500;10.176;2022-08-27T15:31:03;27.90;91.30
7030;DHT22;3556;53.500;10.176;2022-08-27T15:33:30;27.70;90.90
7030;DHT22;3556;53.500;10.176;2022-08-27T15:35:56;27.60;92.70
7030;DHT22;3556;53.500;10.176;2022-08-27T15:38:21;27.30;91.10
7030;DHT22;3556;53.500;10.176;2022-08-27T15:40:47;27.00;92.10
7030;DHT22;3556;53.500;10.176;2022-08-27T15:43:14;26.60;91.50
7030;DHT22;3556;53.500;10.176;2022-08-27T15:45:41;26.30;92.80
7030;DHT22;3556;53.500;10.176;2022-08-27T15:48:07;26.10;93.20
7030;DHT22;3556;53.500;10.176;2022-08-27T15:50:33;25.90;93.30
7030;DHT22;3556;53.500;10.176;2022-08-27T15:53:06;25.60;94.30
7030;DHT22;3556;53.500;10.176;2022-08-27T15:55:35;25.50;95.20
7030;DHT22;3556;53.500;10.176;2022-08-27T15:58:02;25.40;96.20
7030;DHT22;3556;53.500;10.176;2022-08-27T16:00:30;25.20;94.80
7030;DHT22;3556;53.500;10.176;2022-08-27T16:02:59;25.00;94.90
7030;DHT22;3556;53.500;10.176;2022-08-27T16:05:27;24.80;95.70
7030;DHT22;3556;53.500;10.176;2022-08-27T16:07:55;24.70;96.20
7030;DHT22;3556;53.500;10.176;2022-08-27T16:10:21;24.50;96.10
7030;DHT22;3556;53.500;10.176;2022-08-27T16:12:46;24.30;96.80
7030;DHT22;3556;53.500;10.176;2022-08-27T16:15:13;24.20;97.40
7030;DHT22;3556;53.500;10.176;2022-08-27T16:17:39;24.10;97.80
7030;DHT22;3556;53.500;10.176;2022-08-27T16:20:06;24.00;97.80
7030;DHT22;3556;53.500;10.176;2022-08-27T16:22:32;23.90;98.10
7030;DHT22;3556;53.500;10.176;2022-08-27T16:25:00;23.70;98.20
7030;DHT22;3556;53.500;10.176;2022-08-27T16:27:25;23.60;98.60
7030;DHT22;3556;53.500;10.176;2022-08-27T16:29:51;23.50;99.10
7030;DHT22;3556;53.500;10.176;2022-08-27T16:32:18;23.40;99.40
7030;DHT22;3556;53.500;10.176;2022-08-27T16:34:45;23.30;99.80
7030;DHT22;3556;53.500;10.176;2022-08-27T16:37:11;23.30;99.90
7030;DHT22;3556;53.500;10.176;2022-08-27T16:39:37;23.20;99.90
7030;DHT22;3556;53.500;10.176;2022-08-27T16:42:03;23.10;99.90
7030;DHT22;3556;53.500;10.176;2022-08-27T16:44:28;23.00;99.70
7030;DHT22;3556;53.500;10.176;2022-08-27T16:46:55;22.90;99.80
7030;DHT22;3556;53.500;10.176;2022-08-27T16:49:21;22.80;99.90
7030;DHT22;3556;53.500;10.176;2022-08-27T16:52:05;22.60;99.90
7030;DHT22;3556;53.500;10.176;2022-08-27T16:54:32;22.50;99.90
7030;DHT22;3556;53.500;10.176;2022-08-27T16:56:58;22.50;99.90
7030;DHT22;3556;53.500;10.176;2022-08-27T16:59:23;22.40;99.90
7030;DHT22;3556;53.500;10.176;2022-08-27T17:01:50;22.30;99.90
7030;DHT22;3556;53.500;10.176;2022-08-27T17:04:17;22.20;99.90
7030;DHT22;3556;53.500;10.176;2022-08-27T17:06:43;22.20;99.90
7030;DHT22;3556;53.500;10.176;2022-08-27T17:09:09;22.10;99.90
7030;DHT22;3556;53.500;10.176;2022-08-27T17:11:37;22.00;99.90
7030;DHT22;3556;53.500;10.176;2022-08-27T17:14:06;22.00;99.90
7030;DHT22;3556;53.500;10.176;2022-08-27T17:16:33;21.90;99.90
7030;DHT22;3556;53.500;10.176;2022-08-27T17:19:01;21.80;99.90
7030;DHT22;3556;53.500;10.176;2022-08-27T17:21:28;21.80;99.90
7030;DHT22;3556;53.500;10.176;2022-08-27T17:23:56;21.70;99.90
7030;DHT22;3556;53.500;10.176;2022-08-27T17:26:24;21.60;99.90
7030;DHT22;3556;53.500;10.176;2022-08-27T17:28:50;21.50;99.90